Port Macquarie, Australia
Current Conditions -  °F | °C
As of 11:00 AM on Tuesday 23 Dec 2014 (Local Time) from YTRE Reporting Station
Overcast Overcast  
Wind Chill: 72°   Ceiling: 7600
Heat Index: 72°   Visibility: NA
Dew Point: 64°   Wind: 6mph
Humidity: 78%   Direction: 40°NE
Pressure: 29.97"   Gusts: NA
Location:  31.43°S, 152.91°E
Report Text: YTRE 230000Z AUTO 04005KT //// // SCT062 OVC076 OVC089 22/18 Q1015
Loading
Personal Weather Stations






























Interactive Weather Map New forecast layout! Learn more

10-Day Weather Forecast

Advertisements
Track Severe Weather on mobile